sensor_id;sensor_type;location;lat;lon;timestamp;P1;durP1;ratioP1;P2;durP2;ratioP2
80823;SDS011;70538;59.122;37.876;2023-09-19T00:00:47;4.50;;;1.30;;
80823;SDS011;70538;59.122;37.876;2023-09-19T00:03:16;4.40;;;1.20;;
80823;SDS011;70538;59.122;37.876;2023-09-19T00:05:44;5.47;;;1.77;;
80823;SDS011;70538;59.122;37.876;2023-09-19T00:08:13;5.05;;;1.45;;
80823;SDS011;70538;59.122;37.876;2023-09-19T00:10:42;4.13;;;1.10;;
80823;SDS011;70538;59.122;37.876;2023-09-19T00:13:11;5.45;;;1.30;;
80823;SDS011;70538;59.122;37.876;2023-09-19T00:15:43;4.47;;;1.27;;
80823;SDS011;70538;59.122;37.876;2023-09-19T00:18:17;4.20;;;1.10;;
80823;SDS011;70538;59.122;37.876;2023-09-19T00:20:49;4.57;;;1.30;;
80823;SDS011;70538;59.122;37.876;2023-09-19T00:23:20;5.03;;;1.10;;
80823;SDS011;70538;59.122;37.876;2023-09-19T00:25:48;10.65;;;1.30;;
80823;SDS011;70538;59.122;37.876;2023-09-19T00:28:18;4.23;;;1.10;;
80823;SDS011;70538;59.122;37.876;2023-09-19T00:30:47;5.15;;;1.15;;
80823;SDS011;70538;59.122;37.876;2023-09-19T00:33:18;5.45;;;1.23;;
80823;SDS011;70538;59.122;37.876;2023-09-19T00:35:53;4.00;;;1.00;;
80823;SDS011;70538;59.122;37.876;2023-09-19T00:38:22;5.25;;;1.20;;
80823;SDS011;70538;59.122;37.876;2023-09-19T00:40:54;4.77;;;1.20;;
80823;SDS011;70538;59.122;37.876;2023-09-19T00:43:27;4.38;;;1.20;;
80823;SDS011;70538;59.122;37.876;2023-09-19T00:46:03;5.95;;;1.20;;
80823;SDS011;70538;59.122;37.876;2023-09-19T00:48:37;4.80;;;1.20;;
80823;SDS011;70538;59.122;37.876;2023-09-19T00:51:11;4.00;;;1.10;;
80823;SDS011;70538;59.122;37.876;2023-09-19T00:53:41;5.10;;;1.20;;
80823;SDS011;70538;59.122;37.876;2023-09-19T00:56:14;4.80;;;1.30;;
80823;SDS011;70538;59.122;37.876;2023-09-19T00:58:45;4.40;;;1.15;;
80823;SDS011;70538;59.122;37.876;2023-09-19T01:01:14;4.55;;;1.20;;
80823;SDS011;70538;59.122;37.876;2023-09-19T01:03:43;4.45;;;1.10;;
80823;SDS011;70538;59.122;37.876;2023-09-19T01:06:11;4.40;;;1.17;;
80823;SDS011;70538;59.122;37.876;2023-09-19T01:08:39;4.45;;;1.15;;
80823;SDS011;70538;59.122;37.876;2023-09-19T01:11:15;4.63;;;1.25;;
80823;SDS011;70538;59.122;37.876;2023-09-19T01:14:09;4.68;;;1.00;;
80823;SDS011;70538;59.122;37.876;2023-09-19T01:30:14;4.53;;;1.30;;
80823;SDS011;70538;59.122;37.876;2023-09-19T01:32:44;4.23;;;0.90;;
80823;SDS011;70538;59.122;37.876;2023-09-19T01:35:13;4.68;;;1.17;;
80823;SDS011;70538;59.122;37.876;2023-09-19T01:37:41;3.92;;;1.00;;
80823;SDS011;70538;59.122;37.876;2023-09-19T01:40:12;4.50;;;1.30;;
80823;SDS011;70538;59.122;37.876;2023-09-19T01:51:01;3.83;;;1.00;;
80823;SDS011;70538;59.122;37.876;2023-09-19T01:56:28;4.43;;;1.08;;
80823;SDS011;70538;59.122;37.876;2023-09-19T01:59:01;4.60;;;1.10;;
80823;SDS011;70538;59.122;37.876;2023-09-19T02:01:34;4.47;;;1.17;;
80823;SDS011;70538;59.122;37.876;2023-09-19T02:04:04;4.50;;;1.23;;
80823;SDS011;70538;59.122;37.876;2023-09-19T02:06:32;4.53;;;1.20;;
80823;SDS011;70538;59.122;37.876;2023-09-19T02:09:01;4.13;;;1.10;;
80823;SDS011;70538;59.122;37.876;2023-09-19T02:11:30;5.77;;;1.20;;
80823;SDS011;70538;59.122;37.876;2023-09-19T02:13:59;7.10;;;1.38;;
80823;SDS011;70538;59.122;37.876;2023-09-19T02:16:27;4.72;;;1.25;;
80823;SDS011;70538;59.122;37.876;2023-09-19T02:18:56;4.65;;;1.20;;
80823;SDS011;70538;59.122;37.876;2023-09-19T02:21:24;5.47;;;1.20;;
80823;SDS011;70538;59.122;37.876;2023-09-19T02:23:52;3.57;;;0.90;;
80823;SDS011;70538;59.122;37.876;2023-09-19T02:26:19;5.18;;;1.02;;
80823;SDS011;70538;59.122;37.876;2023-09-19T02:28:47;5.82;;;1.23;;
80823;SDS011;70538;59.122;37.876;2023-09-19T02:31:15;4.75;;;1.38;;
80823;SDS011;70538;59.122;37.876;2023-09-19T02:33:44;8.18;;;1.52;;
80823;SDS011;70538;59.122;37.876;2023-09-19T02:36:13;4.80;;;1.50;;
80823;SDS011;70538;59.122;37.876;2023-09-19T02:38:47;4.05;;;1.05;;
80823;SDS011;70538;59.122;37.876;2023-09-19T02:41:15;6.82;;;1.60;;
80823;SDS011;70538;59.122;37.876;2023-09-19T02:43:42;3.72;;;0.95;;
80823;SDS011;70538;59.122;37.876;2023-09-19T02:46:10;5.60;;;1.70;;
80823;SDS011;70538;59.122;37.876;2023-09-19T02:48:39;4.97;;;1.30;;
80823;SDS011;70538;59.122;37.876;2023-09-19T02:51:07;3.95;;;0.93;;
80823;SDS011;70538;59.122;37.876;2023-09-19T02:53:34;6.22;;;1.60;;
80823;SDS011;70538;59.122;37.876;2023-09-19T02:56:03;5.35;;;1.33;;
80823;SDS011;70538;59.122;37.876;2023-09-19T02:58:31;5.90;;;1.90;;
80823;SDS011;70538;59.122;37.876;2023-09-19T03:01:09;7.33;;;2.03;;
80823;SDS011;70538;59.122;37.876;2023-09-19T03:03:38;6.28;;;1.85;;
80823;SDS011;70538;59.122;37.876;2023-09-19T03:06:07;5.80;;;1.40;;
80823;SDS011;70538;59.122;37.876;2023-09-19T03:08:38;4.78;;;1.20;;
80823;SDS011;70538;59.122;37.876;2023-09-19T03:11:06;3.95;;;1.10;;
80823;SDS011;70538;59.122;37.876;2023-09-19T03:13:36;8.90;;;1.93;;
80823;SDS011;70538;59.122;37.876;2023-09-19T03:16:05;5.30;;;1.23;;
80823;SDS011;70538;59.122;37.876;2023-09-19T03:18:36;8.63;;;2.50;;
80823;SDS011;70538;59.122;37.876;2023-09-19T03:21:04;4.68;;;1.27;;
80823;SDS011;70538;59.122;37.876;2023-09-19T03:23:32;4.00;;;0.93;;
80823;SDS011;70538;59.122;37.876;2023-09-19T03:25:59;4.77;;;1.40;;
80823;SDS011;70538;59.122;37.876;2023-09-19T03:28:27;4.90;;;1.40;;
80823;SDS011;70538;59.122;37.876;2023-09-19T03:31:03;6.35;;;2.10;;
80823;SDS011;70538;59.122;37.876;2023-09-19T03:33:32;5.60;;;1.63;;
80823;SDS011;70538;59.122;37.876;2023-09-19T03:36:01;8.88;;;1.63;;
80823;SDS011;70538;59.122;37.876;2023-09-19T03:38:33;7.40;;;2.37;;
80823;SDS011;70538;59.122;37.876;2023-09-19T03:41:02;6.82;;;1.58;;
80823;SDS011;70538;59.122;37.876;2023-09-19T03:43:31;4.75;;;1.02;;
80823;SDS011;70538;59.122;37.876;2023-09-19T03:46:03;6.95;;;1.90;;
80823;SDS011;70538;59.122;37.876;2023-09-19T03:48:32;14.65;;;3.22;;
80823;SDS011;70538;59.122;37.876;2023-09-19T03:51:00;10.77;;;2.00;;
80823;SDS011;70538;59.122;37.876;2023-09-19T03:53:29;9.27;;;3.10;;
80823;SDS011;70538;59.122;37.876;2023-09-19T03:55:57;4.85;;;1.30;;
80823;SDS011;70538;59.122;37.876;2023-09-19T03:58:25;7.90;;;1.52;;
80823;SDS011;70538;59.122;37.876;2023-09-19T04:00:56;5.00;;;1.55;;
80823;SDS011;70538;59.122;37.876;2023-09-19T04:03:25;6.50;;;1.60;;
80823;SDS011;70538;59.122;37.876;2023-09-19T04:06:05;6.18;;;1.50;;
80823;SDS011;70538;59.122;37.876;2023-09-19T04:08:33;7.32;;;1.17;;
80823;SDS011;70538;59.122;37.876;2023-09-19T04:11:00;5.35;;;1.52;;
80823;SDS011;70538;59.122;37.876;2023-09-19T04:13:28;7.85;;;2.70;;
80823;SDS011;70538;59.122;37.876;2023-09-19T04:15:57;7.83;;;2.33;;
80823;SDS011;70538;59.122;37.876;2023-09-19T04:18:25;10.88;;;2.80;;
80823;SDS011;70538;59.122;37.876;2023-09-19T04:20:53;6.95;;;2.00;;
80823;SDS011;70538;59.122;37.876;2023-09-19T04:23:21;4.75;;;1.35;;
80823;SDS011;70538;59.122;37.876;2023-09-19T04:25:49;4.95;;;1.30;;
80823;SDS011;70538;59.122;37.876;2023-09-19T04:28:17;6.77;;;1.57;;
80823;SDS011;70538;59.122;37.876;2023-09-19T04:30:45;6.53;;;1.40;;
80823;SDS011;70538;59.122;37.876;2023-09-19T04:33:13;5.35;;;1.27;;
80823;SDS011;70538;59.122;37.876;2023-09-19T04:35:43;4.88;;;1.10;;
80823;SDS011;70538;59.122;37.876;2023-09-19T04:38:11;4.40;;;1.10;;
80823;SDS011;70538;59.122;37.876;2023-09-19T04:40:39;5.27;;;0.90;;
80823;SDS011;70538;59.122;37.876;2023-09-19T04:43:07;4.50;;;1.30;;
80823;SDS011;70538;59.122;37.876;2023-09-19T04:45:35;3.85;;;0.93;;
80823;SDS011;70538;59.122;37.876;2023-09-19T04:48:06;3.55;;;0.73;;
80823;SDS011;70538;59.122;37.876;2023-09-19T04:50:34;4.20;;;0.93;;
80823;SDS011;70538;59.122;37.876;2023-09-19T04:53:02;5.00;;;1.17;;
80823;SDS011;70538;59.122;37.876;2023-09-19T04:55:30;7.80;;;1.48;;
80823;SDS011;70538;59.122;37.876;2023-09-19T04:58:00;6.93;;;1.67;;
80823;SDS011;70538;59.122;37.876;2023-09-19T05:00:28;5.88;;;1.30;;
80823;SDS011;70538;59.122;37.876;2023-09-19T05:02:58;5.68;;;1.60;;
80823;SDS011;70538;59.122;37.876;2023-09-19T05:05:26;9.50;;;1.63;;
80823;SDS011;70538;59.122;37.876;2023-09-19T05:07:54;6.70;;;1.48;;
80823;SDS011;70538;59.122;37.876;2023-09-19T05:10:23;11.82;;;2.45;;
80823;SDS011;70538;59.122;37.876;2023-09-19T05:12:54;15.98;;;3.15;;
80823;SDS011;70538;59.122;37.876;2023-09-19T05:15:22;15.98;;;3.70;;
80823;SDS011;70538;59.122;37.876;2023-09-19T05:17:51;6.40;;;1.70;;
80823;SDS011;70538;59.122;37.876;2023-09-19T05:20:25;4.65;;;0.90;;
80823;SDS011;70538;59.122;37.876;2023-09-19T05:23:04;4.53;;;0.98;;
80823;SDS011;70538;59.122;37.876;2023-09-19T05:25:39;3.88;;;0.70;;
80823;SDS011;70538;59.122;37.876;2023-09-19T05:28:08;2.13;;;0.52;;
80823;SDS011;70538;59.122;37.876;2023-09-19T05:30:39;2.77;;;0.77;;
80823;SDS011;70538;59.122;37.876;2023-09-19T05:33:08;5.88;;;1.35;;
80823;SDS011;70538;59.122;37.876;2023-09-19T05:35:37;6.55;;;1.30;;
80823;SDS011;70538;59.122;37.876;2023-09-19T05:38:07;4.68;;;0.93;;
80823;SDS011;70538;59.122;37.876;2023-09-19T05:40:40;5.55;;;1.30;;
80823;SDS011;70538;59.122;37.876;2023-09-19T05:43:13;1.90;;;0.50;;
80823;SDS011;70538;59.122;37.876;2023-09-19T05:45:41;2.03;;;0.50;;
80823;SDS011;70538;59.122;37.876;2023-09-19T05:48:10;3.08;;;0.75;;
80823;SDS011;70538;59.122;37.876;2023-09-19T05:50:42;3.88;;;0.70;;
80823;SDS011;70538;59.122;37.876;2023-09-19T05:53:10;3.05;;;0.50;;
80823;SDS011;70538;59.122;37.876;2023-09-19T05:55:42;3.40;;;0.70;;
80823;SDS011;70538;59.122;37.876;2023-09-19T05:58:11;2.03;;;0.50;;
80823;SDS011;70538;59.122;37.876;2023-09-19T06:00:42;3.55;;;0.88;;
80823;SDS011;70538;59.122;37.876;2023-09-19T06:03:11;1.95;;;0.50;;
80823;SDS011;70538;59.122;37.876;2023-09-19T06:05:42;5.38;;;1.13;;
80823;SDS011;70538;59.122;37.876;2023-09-19T06:08:11;4.07;;;0.77;;
80823;SDS011;70538;59.122;37.876;2023-09-19T06:10:40;2.45;;;0.63;;
80823;SDS011;70538;59.122;37.876;2023-09-19T06:13:08;2.15;;;0.60;;
80823;SDS011;70538;59.122;37.876;2023-09-19T06:15:37;1.38;;;0.40;;
80823;SDS011;70538;59.122;37.876;2023-09-19T06:18:09;7.70;;;1.20;;
80823;SDS011;70538;59.122;37.876;2023-09-19T06:20:41;4.30;;;1.17;;
80823;SDS011;70538;59.122;37.876;2023-09-19T06:23:12;2.17;;;0.57;;
80823;SDS011;70538;59.122;37.876;2023-09-19T06:25:40;5.07;;;0.82;;
80823;SDS011;70538;59.122;37.876;2023-09-19T06:28:08;2.83;;;0.60;;
80823;SDS011;70538;59.122;37.876;2023-09-19T06:30:39;2.95;;;0.73;;
80823;SDS011;70538;59.122;37.876;2023-09-19T06:33:07;4.03;;;0.70;;
80823;SDS011;70538;59.122;37.876;2023-09-19T06:35:35;6.95;;;1.67;;
80823;SDS011;70538;59.122;37.876;2023-09-19T06:38:03;8.57;;;1.27;;
80823;SDS011;70538;59.122;37.876;2023-09-19T06:40:33;1.65;;;0.40;;
80823;SDS011;70538;59.122;37.876;2023-09-19T06:43:02;3.13;;;0.73;;
80823;SDS011;70538;59.122;37.876;2023-09-19T06:45:31;7.50;;;0.90;;
80823;SDS011;70538;59.122;37.876;2023-09-19T06:47:59;2.80;;;0.63;;
80823;SDS011;70538;59.122;37.876;2023-09-19T06:50:30;6.82;;;1.13;;
80823;SDS011;70538;59.122;37.876;2023-09-19T06:52:58;2.35;;;0.63;;
80823;SDS011;70538;59.122;37.876;2023-09-19T06:55:27;2.78;;;0.60;;
80823;SDS011;70538;59.122;37.876;2023-09-19T06:57:56;3.03;;;0.80;;
80823;SDS011;70538;59.122;37.876;2023-09-19T07:00:24;3.22;;;0.80;;
80823;SDS011;70538;59.122;37.876;2023-09-19T07:05:29;3.25;;;0.82;;
80823;SDS011;70538;59.122;37.876;2023-09-19T07:08:00;1.80;;;0.50;;
80823;SDS011;70538;59.122;37.876;2023-09-19T07:10:31;3.43;;;0.60;;
80823;SDS011;70538;59.122;37.876;2023-09-19T07:13:03;2.55;;;0.60;;
80823;SDS011;70538;59.122;37.876;2023-09-19T07:15:33;2.90;;;0.63;;
80823;SDS011;70538;59.122;37.876;2023-09-19T07:18:04;2.78;;;0.70;;
80823;SDS011;70538;59.122;37.876;2023-09-19T07:20:34;5.13;;;1.05;;
80823;SDS011;70538;59.122;37.876;2023-09-19T07:23:02;5.73;;;1.30;;
80823;SDS011;70538;59.122;37.876;2023-09-19T07:25:30;2.63;;;0.80;;
80823;SDS011;70538;59.122;37.876;2023-09-19T07:27:58;4.30;;;0.80;;
80823;SDS011;70538;59.122;37.876;2023-09-19T07:30:29;3.65;;;0.70;;
80823;SDS011;70538;59.122;37.876;2023-09-19T07:32:58;4.22;;;0.90;;
80823;SDS011;70538;59.122;37.876;2023-09-19T07:35:26;3.40;;;0.70;;
80823;SDS011;70538;59.122;37.876;2023-09-19T07:37:54;5.55;;;1.10;;
80823;SDS011;70538;59.122;37.876;2023-09-19T07:40:24;2.92;;;0.70;;
80823;SDS011;70538;59.122;37.876;2023-09-19T07:42:57;4.57;;;0.80;;
80823;SDS011;70538;59.122;37.876;2023-09-19T07:45:28;5.43;;;1.10;;
80823;SDS011;70538;59.122;37.876;2023-09-19T07:47:57;2.63;;;0.60;;
80823;SDS011;70538;59.122;37.876;2023-09-19T07:50:25;6.45;;;0.65;;
80823;SDS011;70538;59.122;37.876;2023-09-19T07:52:53;7.50;;;0.93;;
80823;SDS011;70538;59.122;37.876;2023-09-19T07:55:23;6.13;;;0.80;;
80823;SDS011;70538;59.122;37.876;2023-09-19T07:57:52;7.95;;;0.93;;
80823;SDS011;70538;59.122;37.876;2023-09-19T08:00:20;7.40;;;0.90;;
80823;SDS011;70538;59.122;37.876;2023-09-19T08:02:48;2.58;;;0.60;;
80823;SDS011;70538;59.122;37.876;2023-09-19T08:05:24;3.53;;;0.70;;
80823;SDS011;70538;59.122;37.876;2023-09-19T08:07:52;3.88;;;0.60;;
80823;SDS011;70538;59.122;37.876;2023-09-19T08:10:21;5.28;;;1.00;;
80823;SDS011;70538;59.122;37.876;2023-09-19T08:12:49;5.40;;;0.90;;
80823;SDS011;70538;59.122;37.876;2023-09-19T08:15:23;3.63;;;0.70;;
80823;SDS011;70538;59.122;37.876;2023-09-19T08:17:51;3.78;;;1.00;;
80823;SDS011;70538;59.122;37.876;2023-09-19T08:20:20;4.40;;;0.70;;
80823;SDS011;70538;59.122;37.876;2023-09-19T08:22:48;4.13;;;0.90;;
80823;SDS011;70538;59.122;37.876;2023-09-19T08:25:22;4.57;;;0.70;;
80823;SDS011;70538;59.122;37.876;2023-09-19T08:27:52;5.40;;;1.05;;
80823;SDS011;70538;59.122;37.876;2023-09-19T08:30:21;4.70;;;1.20;;
80823;SDS011;70538;59.122;37.876;2023-09-19T08:32:57;4.97;;;0.90;;
80823;SDS011;70538;59.122;37.876;2023-09-19T08:35:26;2.70;;;0.70;;
80823;SDS011;70538;59.122;37.876;2023-09-19T08:37:55;4.27;;;0.77;;
80823;SDS011;70538;59.122;37.876;2023-09-19T08:40:27;4.97;;;1.08;;
80823;SDS011;70538;59.122;37.876;2023-09-19T08:42:57;12.07;;;1.38;;
80823;SDS011;70538;59.122;37.876;2023-09-19T08:45:25;6.88;;;1.00;;
80823;SDS011;70538;59.122;37.876;2023-09-19T08:50:49;5.40;;;1.00;;
80823;SDS011;70538;59.122;37.876;2023-09-19T08:53:27;4.32;;;0.90;;
80823;SDS011;70538;59.122;37.876;2023-09-19T08:56:08;4.43;;;0.90;;
80823;SDS011;70538;59.122;37.876;2023-09-19T08:58:46;5.32;;;1.17;;
80823;SDS011;70538;59.122;37.876;2023-09-19T09:01:22;7.25;;;1.55;;
80823;SDS011;70538;59.122;37.876;2023-09-19T09:03:53;3.87;;;0.83;;
80823;SDS011;70538;59.122;37.876;2023-09-19T09:06:22;3.72;;;0.88;;
80823;SDS011;70538;59.122;37.876;2023-09-19T09:08:51;4.22;;;1.05;;
80823;SDS011;70538;59.122;37.876;2023-09-19T09:11:20;3.33;;;0.50;;
80823;SDS011;70538;59.122;37.876;2023-09-19T09:13:49;6.72;;;0.80;;
80823;SDS011;70538;59.122;37.876;2023-09-19T09:16:17;6.33;;;0.80;;
80823;SDS011;70538;59.122;37.876;2023-09-19T09:18:47;4.63;;;0.93;;
80823;SDS011;70538;59.122;37.876;2023-09-19T09:21:24;4.03;;;0.70;;
80823;SDS011;70538;59.122;37.876;2023-09-19T09:23:53;8.38;;;1.00;;
80823;SDS011;70538;59.122;37.876;2023-09-19T09:26:44;4.82;;;0.85;;
80823;SDS011;70538;59.122;37.876;2023-09-19T09:29:12;3.50;;;1.27;;
80823;SDS011;70538;59.122;37.876;2023-09-19T09:31:46;6.15;;;0.85;;
80823;SDS011;70538;59.122;37.876;2023-09-19T09:34:15;2.47;;;0.65;;
80823;SDS011;70538;59.122;37.876;2023-09-19T09:36:44;5.35;;;1.30;;
80823;SDS011;70538;59.122;37.876;2023-09-19T09:39:27;3.45;;;0.80;;
80823;SDS011;70538;59.122;37.876;2023-09-19T09:41:59;4.40;;;1.10;;
80823;SDS011;70538;59.122;37.876;2023-09-19T09:44:27;4.32;;;0.93;;
80823;SDS011;70538;59.122;37.876;2023-09-19T09:46:59;5.70;;;1.02;;
80823;SDS011;70538;59.122;37.876;2023-09-19T09:49:48;3.90;;;0.80;;
80823;SDS011;70538;59.122;37.876;2023-09-19T09:52:22;4.57;;;1.02;;
80823;SDS011;70538;59.122;37.876;2023-09-19T09:55:02;2.67;;;0.70;;
80823;SDS011;70538;59.122;37.876;2023-09-19T09:57:35;4.18;;;0.80;;
80823;SDS011;70538;59.122;37.876;2023-09-19T10:00:03;4.35;;;0.88;;
80823;SDS011;70538;59.122;37.876;2023-09-19T10:02:41;8.77;;;1.10;;
80823;SDS011;70538;59.122;37.876;2023-09-19T10:05:16;4.15;;;0.88;;
80823;SDS011;70538;59.122;37.876;2023-09-19T10:07:50;5.20;;;0.87;;
80823;SDS011;70538;59.122;37.876;2023-09-19T10:13:25;6.68;;;0.88;;
80823;SDS011;70538;59.122;37.876;2023-09-19T10:15:58;6.45;;;1.02;;
80823;SDS011;70538;59.122;37.876;2023-09-19T10:18:33;5.10;;;1.15;;
80823;SDS011;70538;59.122;37.876;2023-09-19T10:21:07;6.70;;;1.10;;
80823;SDS011;70538;59.122;37.876;2023-09-19T10:23:38;3.55;;;0.80;;
80823;SDS011;70538;59.122;37.876;2023-09-19T10:26:12;4.22;;;1.02;;
80823;SDS011;70538;59.122;37.876;2023-09-19T10:28:46;4.97;;;1.25;;
80823;SDS011;70538;59.122;37.876;2023-09-19T10:31:21;5.28;;;1.10;;
80823;SDS011;70538;59.122;37.876;2023-09-19T10:33:51;8.07;;;1.23;;
80823;SDS011;70538;59.122;37.876;2023-09-19T10:36:24;3.95;;;1.10;;
80823;SDS011;70538;59.122;37.876;2023-09-19T10:38:55;4.60;;;1.20;;
80823;SDS011;70538;59.122;37.876;2023-09-19T10:41:28;4.68;;;1.20;;
80823;SDS011;70538;59.122;37.876;2023-09-19T10:43:57;5.80;;;1.20;;
80823;SDS011;70538;59.122;37.876;2023-09-19T10:46:27;5.77;;;1.13;;
80823;SDS011;70538;59.122;37.876;2023-09-19T10:48:58;6.70;;;1.40;;
80823;SDS011;70538;59.122;37.876;2023-09-19T10:51:29;3.70;;;1.10;;
80823;SDS011;70538;59.122;37.876;2023-09-19T10:54:11;7.30;;;1.20;;
80823;SDS011;70538;59.122;37.876;2023-09-19T10:56:46;8.07;;;1.40;;
80823;SDS011;70538;59.122;37.876;2023-09-19T10:59:18;4.37;;;1.00;;
80823;SDS011;70538;59.122;37.876;2023-09-19T11:01:49;5.20;;;1.20;;
80823;SDS011;70538;59.122;37.876;2023-09-19T11:04:29;5.22;;;1.25;;
80823;SDS011;70538;59.122;37.876;2023-09-19T11:07:08;4.38;;;1.20;;
80823;SDS011;70538;59.122;37.876;2023-09-19T11:09:45;7.93;;;1.55;;
80823;SDS011;70538;59.122;37.876;2023-09-19T11:15:04;4.60;;;1.33;;
80823;SDS011;70538;59.122;37.876;2023-09-19T11:17:39;4.20;;;1.20;;
80823;SDS011;70538;59.122;37.876;2023-09-19T11:30:40;5.13;;;1.30;;
80823;SDS011;70538;59.122;37.876;2023-09-19T11:33:32;4.55;;;1.20;;
80823;SDS011;70538;59.122;37.876;2023-09-19T11:36:02;4.75;;;1.23;;
80823;SDS011;70538;59.122;37.876;2023-09-19T11:46:33;4.40;;;1.20;;
80823;SDS011;70538;59.122;37.876;2023-09-19T11:49:08;4.13;;;1.20;;
80823;SDS011;70538;59.122;37.876;2023-09-19T11:51:41;3.93;;;0.90;;
80823;SDS011;70538;59.122;37.876;2023-09-19T11:54:13;5.32;;;1.27;;
80823;SDS011;70538;59.122;37.876;2023-09-19T11:56:55;4.97;;;1.23;;
80823;SDS011;70538;59.122;37.876;2023-09-19T11:59:26;4.32;;;1.20;;
80823;SDS011;70538;59.122;37.876;2023-09-19T12:01:59;12.13;;;1.80;;
80823;SDS011;70538;59.122;37.876;2023-09-19T12:04:38;3.97;;;1.00;;
80823;SDS011;70538;59.122;37.876;2023-09-19T12:07:12;4.43;;;1.10;;
80823;SDS011;70538;59.122;37.876;2023-09-19T12:09:50;5.75;;;0.95;;
80823;SDS011;70538;59.122;37.876;2023-09-19T12:12:31;7.60;;;1.35;;
80823;SDS011;70538;59.122;37.876;2023-09-19T12:15:04;4.20;;;1.20;;
80823;SDS011;70538;59.122;37.876;2023-09-19T12:20:07;4.43;;;1.23;;
80823;SDS011;70538;59.122;37.876;2023-09-19T12:22:43;4.75;;;1.20;;
80823;SDS011;70538;59.122;37.876;2023-09-19T12:25:19;7.10;;;1.00;;
80823;SDS011;70538;59.122;37.876;2023-09-19T12:27:49;5.57;;;1.23;;
80823;SDS011;70538;59.122;37.876;2023-09-19T12:30:21;5.33;;;1.40;;
80823;SDS011;70538;59.122;37.876;2023-09-19T12:32:55;7.55;;;1.13;;
80823;SDS011;70538;59.122;37.876;2023-09-19T12:35:27;5.95;;;1.17;;
80823;SDS011;70538;59.122;37.876;2023-09-19T12:37:57;6.22;;;1.13;;
80823;SDS011;70538;59.122;37.876;2023-09-19T12:40:25;8.38;;;1.10;;
80823;SDS011;70538;59.122;37.876;2023-09-19T12:42:57;4.50;;;1.20;;
80823;SDS011;70538;59.122;37.876;2023-09-19T12:45:32;6.65;;;1.30;;
80823;SDS011;70538;59.122;37.876;2023-09-19T12:48:17;6.82;;;1.20;;
80823;SDS011;70538;59.122;37.876;2023-09-19T12:53:39;4.32;;;1.20;;
80823;SDS011;70538;59.122;37.876;2023-09-19T12:56:13;4.20;;;1.10;;
80823;SDS011;70538;59.122;37.876;2023-09-19T12:58:57;5.50;;;1.30;;
80823;SDS011;70538;59.122;37.876;2023-09-19T13:01:30;5.18;;;1.30;;
80823;SDS011;70538;59.122;37.876;2023-09-19T13:06:57;5.65;;;1.30;;
80823;SDS011;70538;59.122;37.876;2023-09-19T13:09:28;4.20;;;0.97;;
80823;SDS011;70538;59.122;37.876;2023-09-19T13:12:02;5.63;;;1.20;;
80823;SDS011;70538;59.122;37.876;2023-09-19T13:14:31;6.45;;;1.45;;
80823;SDS011;70538;59.122;37.876;2023-09-19T13:17:00;5.35;;;1.35;;
80823;SDS011;70538;59.122;37.876;2023-09-19T13:19:46;5.88;;;1.63;;
80823;SDS011;70538;59.122;37.876;2023-09-19T13:25:16;5.80;;;1.35;;
80823;SDS011;70538;59.122;37.876;2023-09-19T13:27:48;5.25;;;1.70;;
80823;SDS011;70538;59.122;37.876;2023-09-19T13:30:25;5.50;;;1.20;;
80823;SDS011;70538;59.122;37.876;2023-09-19T13:33:04;4.10;;;1.27;;
80823;SDS011;70538;59.122;37.876;2023-09-19T13:35:34;5.23;;;1.40;;
80823;SDS011;70538;59.122;37.876;2023-09-19T13:38:01;3.83;;;1.10;;
80823;SDS011;70538;59.122;37.876;2023-09-19T13:40:29;5.05;;;1.40;;
80823;SDS011;70538;59.122;37.876;2023-09-19T13:42:58;4.40;;;1.20;;
80823;SDS011;70538;59.122;37.876;2023-09-19T13:45:26;7.28;;;1.40;;
80823;SDS011;70538;59.122;37.876;2023-09-19T13:47:58;4.50;;;1.30;;
80823;SDS011;70538;59.122;37.876;2023-09-19T13:50:26;6.03;;;1.40;;
80823;SDS011;70538;59.122;37.876;2023-09-19T13:52:56;4.60;;;1.17;;
80823;SDS011;70538;59.122;37.876;2023-09-19T13:55:25;6.38;;;1.30;;
80823;SDS011;70538;59.122;37.876;2023-09-19T13:57:53;6.65;;;1.60;;
80823;SDS011;70538;59.122;37.876;2023-09-19T14:00:23;5.83;;;1.50;;
80823;SDS011;70538;59.122;37.876;2023-09-19T14:02:51;7.63;;;2.08;;
80823;SDS011;70538;59.122;37.876;2023-09-19T14:05:19;5.57;;;1.50;;
80823;SDS011;70538;59.122;37.876;2023-09-19T14:07:48;5.82;;;1.60;;
80823;SDS011;70538;59.122;37.876;2023-09-19T14:10:17;6.50;;;1.67;;
80823;SDS011;70538;59.122;37.876;2023-09-19T14:12:45;6.10;;;1.47;;
80823;SDS011;70538;59.122;37.876;2023-09-19T14:15:13;5.70;;;1.60;;
80823;SDS011;70538;59.122;37.876;2023-09-19T14:17:41;6.15;;;1.67;;
80823;SDS011;70538;59.122;37.876;2023-09-19T14:20:20;6.88;;;1.63;;
80823;SDS011;70538;59.122;37.876;2023-09-19T14:22:50;6.40;;;1.80;;
80823;SDS011;70538;59.122;37.876;2023-09-19T14:25:18;7.10;;;1.50;;
80823;SDS011;70538;59.122;37.876;2023-09-19T14:27:50;6.32;;;1.38;;
80823;SDS011;70538;59.122;37.876;2023-09-19T14:30:19;6.25;;;1.40;;
80823;SDS011;70538;59.122;37.876;2023-09-19T14:32:47;5.88;;;1.70;;
80823;SDS011;70538;59.122;37.876;2023-09-19T14:35:21;4.93;;;1.55;;
80823;SDS011;70538;59.122;37.876;2023-09-19T14:37:50;5.00;;;1.40;;
80823;SDS011;70538;59.122;37.876;2023-09-19T14:40:18;5.88;;;1.80;;
80823;SDS011;70538;59.122;37.876;2023-09-19T14:42:47;5.20;;;1.50;;
80823;SDS011;70538;59.122;37.876;2023-09-19T14:45:18;4.72;;;1.40;;
80823;SDS011;70538;59.122;37.876;2023-09-19T14:47:46;5.85;;;1.80;;
80823;SDS011;70538;59.122;37.876;2023-09-19T14:50:14;5.73;;;1.77;;
80823;SDS011;70538;59.122;37.876;2023-09-19T14:52:45;5.05;;;1.55;;
80823;SDS011;70538;59.122;37.876;2023-09-19T14:55:13;4.95;;;1.52;;
80823;SDS011;70538;59.122;37.876;2023-09-19T14:57:42;6.53;;;1.58;;
80823;SDS011;70538;59.122;37.876;2023-09-19T15:00:13;6.05;;;1.40;;
80823;SDS011;70538;59.122;37.876;2023-09-19T15:02:41;6.23;;;1.30;;
80823;SDS011;70538;59.122;37.876;2023-09-19T15:05:09;5.40;;;1.58;;
80823;SDS011;70538;59.122;37.876;2023-09-19T15:07:37;6.70;;;1.85;;
80823;SDS011;70538;59.122;37.876;2023-09-19T15:10:05;8.40;;;1.40;;
80823;SDS011;70538;59.122;37.876;2023-09-19T15:12:37;6.15;;;1.80;;
80823;SDS011;70538;59.122;37.876;2023-09-19T15:15:07;5.73;;;1.23;;
80823;SDS011;70538;59.122;37.876;2023-09-19T15:17:36;4.70;;;1.25;;
80823;SDS011;70538;59.122;37.876;2023-09-19T15:20:04;7.53;;;1.75;;
80823;SDS011;70538;59.122;37.876;2023-09-19T15:22:41;5.70;;;1.50;;
80823;SDS011;70538;59.122;37.876;2023-09-19T15:25:10;5.70;;;1.70;;
80823;SDS011;70538;59.122;37.876;2023-09-19T15:27:37;7.97;;;1.57;;
80823;SDS011;70538;59.122;37.876;2023-09-19T15:30:05;5.35;;;1.50;;
80823;SDS011;70538;59.122;37.876;2023-09-19T15:32:34;8.63;;;2.00;;
80823;SDS011;70538;59.122;37.876;2023-09-19T15:35:02;5.40;;;1.58;;
80823;SDS011;70538;59.122;37.876;2023-09-19T15:37:30;6.95;;;1.55;;
80823;SDS011;70538;59.122;37.876;2023-09-19T15:39:58;8.07;;;1.50;;
80823;SDS011;70538;59.122;37.876;2023-09-19T15:42:26;5.80;;;1.52;;
80823;SDS011;70538;59.122;37.876;2023-09-19T15:44:54;8.63;;;2.20;;
80823;SDS011;70538;59.122;37.876;2023-09-19T15:47:26;5.50;;;1.65;;
80823;SDS011;70538;59.122;37.876;2023-09-19T15:49:54;6.47;;;1.80;;
80823;SDS011;70538;59.122;37.876;2023-09-19T15:52:24;6.10;;;1.57;;
80823;SDS011;70538;59.122;37.876;2023-09-19T15:54:54;5.95;;;1.33;;
80823;SDS011;70538;59.122;37.876;2023-09-19T15:57:22;4.70;;;1.48;;
80823;SDS011;70538;59.122;37.876;2023-09-19T15:59:51;9.20;;;1.80;;